»·PEaware :: AF988 ksan-Klax

AF988 :: ksan-Klax

FLIGHT INFORMATION

Flight Status: Arrived
Operator: Unknown
More flights by this operator :: More flights under this callsign
Pilot: Philip W. (104)
Aircraft: LOCKHEED F-117 NIGHTHAWK
(F117)
More flights by this aircraft type
Origin: ksan San Diego Intl-Lindbergh
United States
Destination: Klax Los Angeles Intl
United States
More flights between these airports :: More routes between these airports
Route: +NO FF
File this flight plan on PilotEdge
Remarks: Broadcasting live www.twitch.tv / philipwyatt
Altitude:
(Current/Filed)
5,500ft
Speed:
(Current/Filed)
250kts
Departed: 14-Jan-14 09:23 PM
Arrived: 14-Jan-14 09:44 PM
Distance/Time
Traveled:
94nm/0:20
Distance/Time
To Go:
Arrived

Flight Plot

Page will automatically refresh every two minutes.


Map Options




Map Legend


Flown Route
Filed Route
Departure Airport
Arrival Airport
Navaid (VOR, NDB)
Fix

Horizontal Profiles

Position Reports

Time Latitude Longitude Heading Altitude Ground
Speed
14-Jan-14 21:01 32.733413 -117.196054 196 24ft 0kts
14-Jan-14 21:02 32.733413 -117.196054 196 24ft 0kts
14-Jan-14 21:03 32.733413 -117.196054 196 24ft 0kts
14-Jan-14 21:04 32.733413 -117.196054 196 24ft 0kts
14-Jan-14 21:05 32.733413 -117.196054 196 24ft 0kts
14-Jan-14 21:06 32.733413 -117.196054 196 24ft 0kts
14-Jan-14 21:07 32.733413 -117.196054 196 24ft 0kts
14-Jan-14 21:08 32.733413 -117.196054 196 24ft 0kts
14-Jan-14 21:09 32.733413 -117.196054 196 24ft 0kts
14-Jan-14 21:10 32.733413 -117.196054 196 24ft 0kts
14-Jan-14 21:11 32.733413 -117.196054 196 24ft 0kts
14-Jan-14 21:12 32.733413 -117.196054 196 24ft 0kts
14-Jan-14 21:13 32.733404 -117.196057 195 24ft 0kts
14-Jan-14 21:14 32.733401 -117.196058 194 24ft 0kts
14-Jan-14 21:15 32.733193 -117.193327 91 24ft 25kts
14-Jan-14 21:16 32.731981 -117.187526 106 24ft 16kts
14-Jan-14 21:17 32.731065 -117.183669 105 24ft 13kts
14-Jan-14 21:18 32.729641 -117.177975 106 24ft 12kts
14-Jan-14 21:19 32.730233 -117.176717 341 24ft 16kts
14-Jan-14 21:20 32.740409 -117.215579 288 1982ft 200kts
14-Jan-14 21:21 32.758529 -117.280505 288 7122ft 212kts
14-Jan-14 21:22 32.778103 -117.351225 288 9854ft 299kts
14-Jan-14 21:23 32.809967 -117.465394 288 10899ft 420kts
14-Jan-14 21:24 32.865847 -117.573723 323 10173ft 355kts
14-Jan-14 21:25 32.942241 -117.636723 327 10310ft 330kts
14-Jan-14 21:26 33.023753 -117.698812 328 10622ft 348kts
14-Jan-14 21:27 33.103017 -117.758888 327 10322ft 335kts
14-Jan-14 21:28 33.181726 -117.818746 326 10294ft 349kts
14-Jan-14 21:30 33.263463 -117.881159 330 10442ft 353kts
14-Jan-14 21:31 33.344401 -117.942749 330 10483ft 348kts
14-Jan-14 21:32 33.434569 -118.004960 335 10857ft 431kts
14-Jan-14 21:33 33.549757 -118.067343 346 12465ft 448kts
14-Jan-14 21:34 33.639809 -118.100015 342 10402ft 347kts
14-Jan-14 21:34 33.698833 -118.122104 340 10862ft 345kts
14-Jan-14 21:36 33.746654 -118.233998 276 9781ft 360kts
14-Jan-14 21:36 33.759865 -118.331325 292 6484ft 353kts
14-Jan-14 21:38 33.834879 -118.366963 73 3843ft 267kts
14-Jan-14 21:38 33.887569 -118.373262 331 2478ft 251kts
14-Jan-14 21:39 33.919365 -118.343401 77 1431ft 214kts
14-Jan-14 21:40 33.938910 -118.372835 256 668ft 280kts
14-Jan-14 21:41 33.934417 -118.412138 226 132ft 11kts
14-Jan-14 21:42 33.933244 -118.411094 84 132ft 5kts
14-Jan-14 21:43 33.933070 -118.408534 155 132ft 0kts
14-Jan-14 21:44 33.933070 -118.408534 155 132ft 0kts
14-Jan-14 21:45 33.933070 -118.408534 155 132ft 0kts
14-Jan-14 21:46 33.933070 -118.408534 155 132ft 0kts
14-Jan-14 21:47 33.933070 -118.408534 155 132ft 0kts
14-Jan-14 21:48 33.933070 -118.408534 155 132ft 0kts
14-Jan-14 21:49 33.933070 -118.408534 155 132ft 0kts
14-Jan-14 21:50 33.933070 -118.408534 155 132ft 0kts
14-Jan-14 21:51 33.933070 -118.408534 155 132ft 0kts
14-Jan-14 21:52 33.933070 -118.408534 155 132ft 0kts
14-Jan-14 21:53 33.933070 -118.408534 155 132ft 0kts
14-Jan-14 21:54 33.933070 -118.408534 155 132ft 0kts
14-Jan-14 21:55 33.933070 -118.408534 155 132ft 0kts

Navigation Log

Ident Type
Flight plan parsing failed, navigation log unavailable